createdAt,value
2023-05-31T00:00:01.039Z,929.00
2023-05-31T00:01:01.263Z,926.00
2023-05-31T00:02:01.133Z,955.00
2023-05-31T00:03:01.283Z,928.00
2023-05-31T00:04:01.298Z,938.00
2023-05-31T00:05:01.284Z,950.00
2023-05-31T00:06:01.378Z,940.00
2023-05-31T00:07:01.366Z,938.00
2023-05-31T00:08:01.396Z,924.00
2023-05-31T00:09:01.454Z,928.00
2023-05-31T00:10:01.513Z,935.00
2023-05-31T00:11:01.855Z,938.00
2023-05-31T00:12:01.635Z,935.00
2023-05-31T00:13:01.719Z,928.00
2023-05-31T00:14:01.737Z,935.00
2023-05-31T00:15:01.879Z,937.00
2023-05-31T00:16:01.888Z,939.00
2023-05-31T00:17:20.566Z,954.00
2023-05-31T00:18:02.945Z,955.00
2023-05-31T00:19:01.977Z,955.00
2023-05-31T00:20:01.927Z,947.00
2023-05-31T00:21:02.071Z,947.00
2023-05-31T00:22:01.951Z,957.00
2023-05-31T00:23:01.914Z,944.00
2023-05-31T00:24:01.904Z,941.00
2023-05-31T00:25:01.878Z,935.00
2023-05-31T00:26:01.852Z,942.00
2023-05-31T00:27:01.941Z,938.00
2023-05-31T00:28:02.084Z,958.00
2023-05-31T00:29:02.047Z,953.00
2023-05-31T00:30:02.106Z,955.00
2023-05-31T00:31:02.307Z,964.00
2023-05-31T00:32:02.226Z,951.00
2023-05-31T00:33:02.394Z,957.00
2023-05-31T00:34:02.404Z,944.00
2023-05-31T00:35:02.467Z,941.00
2023-05-31T00:36:02.451Z,946.00
2023-05-31T00:37:02.529Z,951.00
2023-05-31T00:38:02.695Z,952.00
2023-05-31T00:39:02.638Z,949.00
2023-05-31T00:40:02.729Z,959.00
2023-05-31T00:41:02.754Z,946.00
2023-05-31T00:42:02.799Z,950.00
2023-05-31T00:43:02.862Z,940.00
2023-05-31T00:44:02.917Z,954.00
2023-05-31T00:45:03.019Z,953.00
2023-05-31T00:46:03.098Z,948.00
2023-05-31T00:47:03.111Z,948.00
2023-05-31T00:48:03.224Z,962.00
2023-05-31T00:49:03.246Z,946.00
2023-05-31T00:50:03.264Z,951.00
2023-05-31T00:51:03.460Z,964.00
2023-05-31T00:52:03.452Z,951.00
2023-05-31T00:53:03.455Z,963.00
2023-05-31T00:54:03.567Z,961.00
2023-05-31T00:55:03.619Z,961.00
2023-05-31T00:56:03.668Z,950.00
2023-05-31T00:57:03.728Z,954.00
2023-05-31T00:58:03.795Z,963.00
2023-05-31T00:59:03.828Z,967.00
2023-05-31T01:00:03.872Z,957.00
2023-05-31T01:01:04.036Z,974.00
2023-05-31T01:02:04.057Z,959.00
2023-05-31T01:03:04.236Z,952.00
2023-05-31T01:04:04.470Z,956.00
2023-05-31T01:05:04.201Z,945.00
2023-05-31T01:06:04.230Z,968.00
2023-05-31T01:07:04.307Z,959.00
2023-05-31T01:08:04.371Z,950.00
2023-05-31T01:09:04.422Z,986.00
2023-05-31T01:10:04.480Z,963.00
2023-05-31T01:11:04.536Z,969.00
2023-05-31T01:12:04.595Z,964.00
2023-05-31T01:13:04.601Z,978.00
2023-05-31T01:14:04.666Z,961.00
2023-05-31T01:15:04.732Z,952.00
2023-05-31T01:16:04.818Z,969.00
2023-05-31T01:17:04.836Z,968.00
2023-05-31T01:18:04.985Z,966.00
2023-05-31T01:19:04.961Z,975.00
2023-05-31T01:20:05.320Z,977.00
2023-05-31T01:21:05.119Z,976.00
2023-05-31T01:22:05.129Z,972.00
2023-05-31T01:23:05.196Z,973.00
2023-05-31T01:24:05.221Z,985.00
2023-05-31T01:25:05.306Z,971.00
2023-05-31T01:26:05.380Z,968.00
2023-05-31T01:27:05.421Z,965.00
2023-05-31T01:28:05.450Z,966.00
2023-05-31T01:29:05.586Z,959.00
2023-05-31T01:30:05.612Z,980.00
2023-05-31T01:31:05.656Z,969.00
2023-05-31T01:32:05.760Z,972.00
2023-05-31T01:33:05.811Z,974.00
2023-05-31T01:34:05.915Z,981.00
2023-05-31T01:35:05.928Z,976.00
2023-05-31T01:36:05.943Z,975.00
2023-05-31T01:37:06.029Z,969.00
2023-05-31T01:38:06.107Z,978.00
2023-05-31T01:39:06.168Z,973.00
2023-05-31T01:40:06.239Z,979.00
2023-05-31T01:41:06.230Z,976.00
2023-05-31T01:42:06.370Z,974.00
2023-05-31T01:43:06.399Z,984.00
2023-05-31T01:44:06.419Z,956.00
2023-05-31T01:45:06.516Z,963.00
2023-05-31T01:46:06.597Z,971.00
2023-05-31T01:47:06.617Z,981.00
2023-05-31T01:48:06.740Z,976.00
2023-05-31T01:49:06.699Z,973.00
2023-05-31T01:50:06.818Z,972.00
2023-05-31T01:51:06.763Z,989.00
2023-05-31T01:52:06.819Z,976.00
2023-05-31T01:53:06.904Z,983.00
2023-05-31T01:54:06.939Z,968.00
2023-05-31T01:55:06.953Z,984.00
2023-05-31T01:56:07.004Z,991.00
2023-05-31T01:57:07.168Z,980.00
2023-05-31T01:58:07.113Z,974.00
2023-05-31T01:59:07.183Z,989.00
2023-05-31T02:00:07.239Z,989.00
2023-05-31T02:01:07.338Z,974.00
2023-05-31T02:02:07.375Z,971.00
2023-05-31T02:03:07.520Z,995.00
2023-05-31T02:04:07.465Z,987.00
2023-05-31T02:05:07.527Z,997.00
2023-05-31T02:06:07.598Z,974.00
2023-05-31T02:07:07.642Z,977.00
2023-05-31T02:08:07.736Z,992.00
2023-05-31T02:09:07.768Z,986.00
2023-05-31T02:10:07.787Z,988.00
2023-05-31T02:11:07.880Z,977.00
2023-05-31T02:12:08.003Z,979.00
2023-05-31T02:13:08.004Z,984.00
2023-05-31T02:14:08.050Z,974.00
2023-05-31T02:15:08.108Z,985.00
2023-05-31T02:16:08.189Z,1000.00
2023-05-31T02:17:08.256Z,994.00
2023-05-31T02:18:08.296Z,993.00
2023-05-31T02:19:08.282Z,997.00
2023-05-31T02:20:08.317Z,998.00
2023-05-31T02:21:08.405Z,991.00
2023-05-31T02:22:08.419Z,1009.00
2023-05-31T02:23:08.461Z,1002.00
2023-05-31T02:24:08.523Z,997.00
2023-05-31T02:25:08.567Z,982.00
2023-05-31T02:26:08.588Z,984.00
2023-05-31T02:27:08.663Z,1002.00
2023-05-31T02:28:08.681Z,989.00
2023-05-31T02:29:08.772Z,1008.00
2023-05-31T02:30:08.784Z,985.00
2023-05-31T02:31:08.879Z,992.00
2023-05-31T02:32:08.893Z,998.00
2023-05-31T02:33:08.884Z,1000.00
2023-05-31T02:34:08.965Z,1003.00
2023-05-31T02:35:09.020Z,999.00
2023-05-31T02:36:09.048Z,996.00
2023-05-31T02:37:09.138Z,998.00
2023-05-31T02:38:09.132Z,1005.00
2023-05-31T02:39:09.143Z,1006.00
2023-05-31T02:40:09.224Z,999.00
2023-05-31T02:41:09.179Z,1002.00
2023-05-31T02:42:09.211Z,1000.00
2023-05-31T02:43:09.223Z,1001.00
2023-05-31T02:44:09.230Z,998.00
2023-05-31T02:45:09.265Z,1007.00
2023-05-31T02:46:09.360Z,1001.00
2023-05-31T02:47:09.289Z,995.00
2023-05-31T02:48:09.321Z,989.00
2023-05-31T02:49:09.315Z,994.00
2023-05-31T02:50:09.374Z,986.00
2023-05-31T02:51:09.326Z,991.00
2023-05-31T02:52:09.308Z,1000.00
2023-05-31T02:53:09.400Z,991.00
2023-05-31T02:54:09.382Z,999.00
2023-05-31T02:55:09.356Z,994.00
2023-05-31T02:56:09.433Z,999.00
2023-05-31T02:57:09.473Z,996.00
2023-05-31T02:58:09.476Z,1008.00
2023-05-31T02:59:09.475Z,1004.00
2023-05-31T03:00:09.565Z,1011.00
2023-05-31T03:01:09.505Z,1000.00
2023-05-31T03:02:09.683Z,1014.00
2023-05-31T03:03:09.670Z,1008.00
2023-05-31T03:04:09.589Z,994.00
2023-05-31T03:05:09.604Z,1006.00
2023-05-31T03:06:09.626Z,1005.00
2023-05-31T03:07:09.613Z,1006.00
2023-05-31T03:08:09.609Z,984.00
2023-05-31T03:09:09.663Z,1006.00
2023-05-31T03:10:09.673Z,1009.00
2023-05-31T03:11:09.733Z,1006.00
2023-05-31T03:12:09.743Z,1009.00
2023-05-31T03:13:09.785Z,999.00
2023-05-31T03:14:09.800Z,1002.00
2023-05-31T03:15:09.859Z,1001.00
2023-05-31T03:16:09.903Z,1006.00
2023-05-31T03:17:09.872Z,1011.00
2023-05-31T03:18:09.891Z,1002.00
2023-05-31T03:19:09.929Z,1001.00
2023-05-31T03:20:10.339Z,1015.00
2023-05-31T03:21:09.942Z,1008.00
2023-05-31T03:22:10.031Z,1012.00
2023-05-31T03:23:10.043Z,1013.00
2023-05-31T03:24:10.045Z,1022.00
2023-05-31T03:25:10.029Z,1012.00
2023-05-31T03:26:10.041Z,1012.00
2023-05-31T03:27:10.048Z,1012.00
2023-05-31T03:28:10.101Z,1013.00
2023-05-31T03:29:10.116Z,1015.00
2023-05-31T03:30:10.174Z,1014.00
2023-05-31T03:31:10.112Z,1021.00
2023-05-31T03:32:10.139Z,1012.00
2023-05-31T03:33:10.203Z,1030.00
2023-05-31T03:34:10.209Z,1019.00
2023-05-31T03:35:10.208Z,1021.00
2023-05-31T03:36:10.260Z,1030.00
2023-05-31T03:37:10.216Z,1028.00
2023-05-31T03:38:10.239Z,1017.00
2023-05-31T03:39:10.233Z,1006.00
2023-05-31T03:40:10.297Z,1024.00
2023-05-31T03:41:10.249Z,1016.00
2023-05-31T03:42:10.265Z,1026.00
2023-05-31T03:43:10.263Z,1023.00
2023-05-31T03:44:10.275Z,1021.00
2023-05-31T03:45:10.275Z,1023.00
2023-05-31T03:46:10.362Z,1023.00
2023-05-31T03:47:10.285Z,1021.00
2023-05-31T03:48:10.375Z,1018.00
2023-05-31T03:49:10.358Z,1026.00
2023-05-31T03:50:10.416Z,1022.00
2023-05-31T03:51:10.459Z,1030.00
2023-05-31T03:52:10.538Z,1020.00
2023-05-31T03:53:10.571Z,1018.00
2023-05-31T03:54:10.645Z,1011.00
2023-05-31T03:55:10.695Z,1017.00
2023-05-31T03:56:10.765Z,997.00
2023-05-31T03:57:10.804Z,1012.00
2023-05-31T03:58:10.877Z,1014.00
2023-05-31T03:59:10.922Z,1026.00
2023-05-31T04:00:11.008Z,1013.00
2023-05-31T04:01:11.107Z,1008.00
2023-05-31T04:02:11.247Z,1010.00
2023-05-31T04:03:11.247Z,1021.00
2023-05-31T04:04:11.435Z,1009.00
2023-05-31T04:05:11.365Z,992.00
2023-05-31T04:06:11.356Z,986.00
2023-05-31T04:07:11.394Z,972.00
2023-05-31T04:08:11.459Z,965.00
2023-05-31T04:09:11.513Z,945.00
2023-05-31T04:10:11.536Z,915.00
2023-05-31T04:11:11.582Z,896.00
2023-05-31T04:12:11.715Z,895.00
2023-05-31T04:13:11.698Z,874.00
2023-05-31T04:14:11.701Z,860.00
2023-05-31T04:15:11.738Z,823.00
2023-05-31T04:16:11.862Z,798.00
2023-05-31T04:17:11.809Z,813.00
2023-05-31T04:18:11.885Z,784.00
2023-05-31T04:19:11.874Z,788.00
2023-05-31T04:20:11.932Z,782.00
2023-05-31T04:21:11.842Z,763.00
2023-05-31T04:22:11.893Z,747.00
2023-05-31T04:23:11.914Z,737.00
2023-05-31T04:24:11.981Z,731.00
2023-05-31T04:25:12.016Z,686.00
2023-05-31T04:26:12.042Z,658.00
2023-05-31T04:27:12.046Z,648.00
2023-05-31T04:28:12.108Z,641.00
2023-05-31T04:29:12.114Z,637.00
2023-05-31T04:30:12.161Z,632.00
2023-05-31T04:31:12.149Z,633.00
2023-05-31T04:32:12.223Z,632.00
2023-05-31T04:33:12.220Z,639.00
2023-05-31T04:34:12.249Z,632.00
2023-05-31T04:35:12.252Z,642.00
2023-05-31T04:36:12.249Z,630.00
2023-05-31T04:37:12.267Z,633.00
2023-05-31T04:38:12.320Z,639.00
2023-05-31T04:39:12.379Z,633.00
2023-05-31T04:40:12.435Z,639.00
2023-05-31T04:41:12.504Z,644.00
2023-05-31T04:42:12.560Z,650.00
2023-05-31T04:43:12.524Z,653.00
2023-05-31T04:44:12.509Z,657.00
2023-05-31T04:45:12.458Z,658.00
2023-05-31T04:46:12.572Z,661.00
2023-05-31T04:47:12.540Z,670.00
2023-05-31T04:48:12.554Z,677.00
2023-05-31T04:49:12.625Z,690.00
2023-05-31T04:50:12.666Z,712.00
2023-05-31T04:51:12.764Z,723.00
2023-05-31T04:52:12.734Z,728.00
2023-05-31T04:53:12.789Z,729.00
2023-05-31T04:54:12.856Z,717.00
2023-05-31T04:55:12.950Z,659.00
2023-05-31T04:56:12.907Z,633.00
2023-05-31T04:57:12.957Z,622.00
2023-05-31T04:58:13.028Z,611.00
2023-05-31T04:59:13.147Z,606.00
2023-05-31T05:00:13.087Z,597.00
2023-05-31T05:01:13.113Z,604.00
2023-05-31T05:02:13.094Z,605.00
2023-05-31T05:03:13.191Z,584.00
2023-05-31T05:04:13.161Z,568.00
2023-05-31T05:05:13.126Z,561.00
2023-05-31T05:06:13.180Z,549.00
2023-05-31T05:07:13.226Z,548.00
2023-05-31T05:08:13.302Z,544.00
2023-05-31T05:09:13.355Z,543.00
2023-05-31T05:10:13.368Z,545.00
2023-05-31T05:11:13.372Z,548.00
2023-05-31T05:12:13.364Z,552.00
2023-05-31T05:13:13.368Z,561.00
2023-05-31T05:14:13.381Z,544.00
2023-05-31T05:15:13.381Z,542.00
2023-05-31T05:16:13.392Z,538.00
2023-05-31T05:17:13.453Z,528.00
2023-05-31T05:18:13.470Z,533.00
2023-05-31T05:19:13.420Z,524.00
2023-05-31T05:20:13.574Z,521.00
2023-05-31T05:21:13.525Z,528.00
2023-05-31T05:22:13.597Z,520.00
2023-05-31T05:23:13.644Z,524.00
2023-05-31T05:24:13.670Z,528.00
2023-05-31T05:25:13.718Z,531.00
2023-05-31T05:26:13.767Z,530.00
2023-05-31T05:27:13.792Z,542.00
2023-05-31T05:28:13.800Z,542.00
2023-05-31T05:29:13.844Z,514.00
2023-05-31T05:30:13.931Z,505.00
2023-05-31T05:31:13.994Z,506.00
2023-05-31T05:32:13.969Z,500.00
2023-05-31T05:33:13.972Z,500.00
2023-05-31T05:34:14.028Z,508.00
2023-05-31T05:35:14.088Z,514.00
2023-05-31T05:36:14.097Z,508.00
2023-05-31T05:37:14.154Z,501.00
2023-05-31T05:38:14.213Z,500.00
2023-05-31T05:39:14.289Z,503.00
2023-05-31T05:40:14.302Z,509.00
2023-05-31T05:41:14.352Z,501.00
2023-05-31T05:42:14.384Z,514.00
2023-05-31T05:43:14.563Z,500.00
2023-05-31T05:44:14.518Z,515.00
2023-05-31T05:45:14.578Z,504.00
2023-05-31T05:46:14.747Z,511.00
2023-05-31T05:47:14.626Z,524.00
2023-05-31T05:48:14.724Z,539.00
2023-05-31T05:49:14.982Z,556.00
2023-05-31T05:50:14.822Z,573.00
2023-05-31T05:51:14.883Z,574.00
2023-05-31T05:52:15.096Z,582.00
2023-05-31T05:53:14.880Z,585.00
2023-05-31T05:54:14.864Z,584.00
2023-05-31T05:55:14.948Z,584.00
2023-05-31T05:56:15.025Z,584.00
2023-05-31T05:57:14.962Z,579.00
2023-05-31T05:58:15.030Z,578.00
2023-05-31T05:59:15.028Z,576.00
2023-05-31T06:00:15.024Z,567.00
2023-05-31T06:01:15.033Z,574.00
2023-05-31T06:02:15.559Z,578.00
2023-05-31T06:03:15.218Z,576.00
2023-05-31T06:04:15.168Z,567.00
2023-05-31T06:05:15.120Z,564.00
2023-05-31T06:06:15.221Z,563.00
2023-05-31T06:07:15.538Z,565.00
2023-05-31T06:08:15.203Z,570.00
2023-05-31T06:09:15.181Z,571.00
2023-05-31T06:10:15.200Z,561.00
2023-05-31T06:11:15.263Z,558.00
2023-05-31T06:12:15.221Z,554.00
2023-05-31T06:13:15.206Z,549.00
2023-05-31T06:14:15.295Z,562.00
2023-05-31T06:15:15.247Z,554.00
2023-05-31T06:16:15.347Z,552.00
2023-05-31T06:17:15.340Z,555.00
2023-05-31T06:18:15.330Z,554.00
2023-05-31T06:19:15.350Z,550.00
2023-05-31T06:20:15.442Z,560.00
2023-05-31T06:21:15.375Z,546.00
2023-05-31T06:22:15.378Z,551.00
2023-05-31T06:23:15.321Z,550.00
2023-05-31T06:24:15.354Z,567.00
2023-05-31T06:25:15.381Z,552.00
2023-05-31T06:26:15.376Z,551.00
2023-05-31T06:27:15.407Z,554.00
2023-05-31T06:28:15.414Z,550.00
2023-05-31T06:29:15.431Z,549.00
2023-05-31T06:30:15.420Z,549.00
2023-05-31T06:31:15.424Z,540.00
2023-05-31T06:32:15.468Z,533.00
2023-05-31T06:33:15.509Z,525.00
2023-05-31T06:34:15.465Z,507.00
2023-05-31T06:35:15.483Z,500.00
2023-05-31T06:36:15.476Z,501.00
2023-05-31T06:37:15.488Z,501.00
2023-05-31T06:38:15.489Z,506.00
2023-05-31T06:39:15.572Z,488.00
2023-05-31T06:40:15.572Z,489.00
2023-05-31T06:41:15.584Z,483.00
2023-05-31T06:42:15.581Z,550.00
2023-05-31T06:43:15.630Z,578.00
2023-05-31T06:44:15.659Z,593.00
2023-05-31T06:45:15.731Z,596.00
2023-05-31T06:46:15.713Z,602.00
2023-05-31T06:47:15.721Z,615.00
2023-05-31T06:48:15.676Z,608.00
2023-05-31T06:49:15.735Z,609.00
2023-05-31T06:50:15.747Z,608.00
2023-05-31T06:51:15.740Z,597.00
2023-05-31T06:52:15.707Z,565.00
2023-05-31T06:53:15.766Z,536.00
2023-05-31T06:54:15.743Z,533.00
2023-05-31T06:55:15.726Z,527.00
2023-05-31T06:56:15.779Z,527.00
2023-05-31T06:57:15.718Z,534.00
2023-05-31T06:58:15.791Z,536.00
2023-05-31T06:59:15.735Z,501.00
2023-05-31T07:00:15.793Z,509.00
2023-05-31T07:01:15.756Z,521.00
2023-05-31T07:02:15.755Z,525.00
2023-05-31T07:03:15.919Z,541.00
2023-05-31T07:04:15.785Z,560.00
2023-05-31T07:05:15.773Z,564.00
2023-05-31T07:06:15.800Z,576.00
2023-05-31T07:07:15.793Z,562.00
2023-05-31T07:08:15.823Z,568.00
2023-05-31T07:09:15.792Z,572.00
2023-05-31T07:10:15.811Z,571.00
2023-05-31T07:11:15.840Z,572.00
2023-05-31T07:12:15.807Z,571.00
2023-05-31T07:13:15.848Z,570.00
2023-05-31T07:14:15.902Z,566.00
2023-05-31T07:15:15.844Z,565.00
2023-05-31T07:16:16.043Z,566.00
2023-05-31T07:17:15.964Z,556.00
2023-05-31T07:18:15.964Z,555.00
2023-05-31T07:19:15.931Z,546.00
2023-05-31T07:20:16.046Z,546.00
2023-05-31T07:21:15.981Z,537.00
2023-05-31T07:22:15.995Z,530.00
2023-05-31T07:23:16.075Z,528.00
2023-05-31T07:24:16.112Z,521.00
2023-05-31T07:25:16.200Z,534.00
2023-05-31T07:26:16.235Z,528.00
2023-05-31T07:27:16.222Z,531.00
2023-05-31T07:28:16.310Z,530.00
2023-05-31T07:29:16.345Z,527.00
2023-05-31T07:30:16.448Z,525.00
2023-05-31T07:31:16.621Z,529.00
2023-05-31T07:32:16.534Z,533.00
2023-05-31T07:33:21.936Z,530.00
2023-05-31T07:34:17.546Z,530.00
2023-05-31T07:35:16.606Z,531.00
2023-05-31T07:36:16.542Z,524.00
2023-05-31T07:37:16.546Z,531.00
2023-05-31T07:38:16.575Z,531.00
2023-05-31T07:39:16.598Z,521.00
2023-05-31T07:40:16.545Z,444.00
2023-05-31T07:41:16.538Z,400.00
2023-05-31T07:42:16.522Z,412.00
2023-05-31T07:43:16.487Z,413.00
2023-05-31T07:44:16.476Z,459.00
2023-05-31T07:45:16.481Z,510.00
2023-05-31T07:46:16.526Z,526.00
2023-05-31T07:47:16.471Z,542.00
2023-05-31T07:48:16.510Z,567.00
2023-05-31T07:49:16.508Z,599.00
2023-05-31T07:50:16.476Z,602.00
2023-05-31T07:51:16.461Z,619.00
2023-05-31T07:52:16.492Z,641.00
2023-05-31T07:53:16.491Z,720.00
2023-05-31T07:54:16.466Z,752.00
2023-05-31T07:55:16.461Z,789.00
2023-05-31T07:56:16.484Z,807.00
2023-05-31T07:57:16.480Z,834.00
2023-05-31T07:58:16.524Z,870.00
2023-05-31T07:59:16.509Z,895.00
2023-05-31T08:00:16.684Z,863.00
2023-05-31T08:01:16.584Z,890.00
2023-05-31T08:02:16.654Z,895.00
2023-05-31T08:03:16.685Z,896.00
2023-05-31T08:04:16.637Z,854.00
2023-05-31T08:05:16.620Z,901.00
2023-05-31T08:06:16.600Z,914.00
2023-05-31T08:07:16.594Z,938.00
2023-05-31T08:08:16.610Z,915.00
2023-05-31T08:09:16.598Z,952.00
2023-05-31T08:10:16.756Z,758.00
2023-05-31T08:11:16.638Z,618.00
2023-05-31T08:12:16.931Z,687.00
2023-05-31T08:13:16.651Z,780.00
2023-05-31T08:14:16.635Z,825.00
2023-05-31T08:15:16.643Z,837.00
2023-05-31T08:16:16.659Z,878.00
2023-05-31T08:17:16.861Z,912.00
2023-05-31T08:18:16.720Z,953.00
2023-05-31T08:19:16.732Z,962.00
2023-05-31T08:20:16.749Z,994.00
2023-05-31T08:21:16.720Z,1005.00
2023-05-31T08:22:16.740Z,1001.00
2023-05-31T08:23:16.728Z,997.00
2023-05-31T08:24:16.724Z,1027.00
2023-05-31T08:25:16.743Z,1088.00
2023-05-31T08:26:16.788Z,867.00
2023-05-31T08:27:16.763Z,719.00
2023-05-31T08:28:16.749Z,618.00
2023-05-31T08:29:16.789Z,505.00
2023-05-31T08:30:16.843Z,451.00
2023-05-31T08:31:16.963Z,444.00
2023-05-31T08:32:16.915Z,452.00
2023-05-31T08:33:17.085Z,472.00
2023-05-31T08:34:17.030Z,499.00
2023-05-31T08:35:17.049Z,501.00
2023-05-31T08:36:17.123Z,521.00
2023-05-31T08:37:17.168Z,500.00
2023-05-31T08:38:17.247Z,497.00
2023-05-31T08:39:17.317Z,500.00
2023-05-31T08:40:17.368Z,500.00
2023-05-31T08:41:17.463Z,496.00
2023-05-31T08:42:17.446Z,499.00
2023-05-31T08:43:17.685Z,509.00
2023-05-31T08:44:17.514Z,539.00
2023-05-31T08:45:17.635Z,551.00
2023-05-31T08:46:17.654Z,572.00
2023-05-31T08:47:17.755Z,638.00
2023-05-31T08:48:17.724Z,660.00
2023-05-31T08:49:17.764Z,731.00
2023-05-31T08:50:17.759Z,803.00
2023-05-31T08:51:17.776Z,903.00
2023-05-31T08:52:17.831Z,944.00
2023-05-31T08:53:17.781Z,1030.00
2023-05-31T08:54:17.828Z,1099.00
2023-05-31T08:55:17.796Z,1123.00
2023-05-31T08:56:17.849Z,1097.00
2023-05-31T08:57:17.863Z,1129.00
2023-05-31T08:58:17.870Z,1140.00
2023-05-31T08:59:17.903Z,1156.00
2023-05-31T09:00:18.016Z,1171.00
2023-05-31T09:01:18.129Z,1176.00
2023-05-31T09:02:18.085Z,1216.00
2023-05-31T09:03:18.139Z,1200.00
2023-05-31T09:04:18.202Z,1219.00
2023-05-31T09:05:18.306Z,1251.00
2023-05-31T09:06:18.413Z,1232.00
2023-05-31T09:07:18.381Z,1215.00
2023-05-31T09:08:18.442Z,1208.00
2023-05-31T09:09:18.444Z,1261.00
2023-05-31T09:10:18.463Z,1243.00
2023-05-31T09:11:18.549Z,1263.00
2023-05-31T09:12:18.530Z,1286.00
2023-05-31T09:13:18.582Z,1321.00
2023-05-31T09:14:18.607Z,1329.00
2023-05-31T09:15:18.659Z,1359.00
2023-05-31T09:16:18.725Z,1376.00
2023-05-31T09:17:18.708Z,1334.00
2023-05-31T09:18:18.677Z,1364.00
2023-05-31T09:19:18.738Z,1387.00
2023-05-31T09:20:18.817Z,1412.00
2023-05-31T09:21:18.771Z,1382.00
2023-05-31T09:22:18.781Z,1459.00
2023-05-31T09:23:18.829Z,1478.00
2023-05-31T09:24:18.825Z,1454.00
2023-05-31T09:25:18.823Z,1441.00
2023-05-31T09:26:18.841Z,1426.00
2023-05-31T09:27:18.810Z,1446.00
2023-05-31T09:28:18.822Z,1467.00
2023-05-31T09:29:18.972Z,1484.00
2023-05-31T09:30:18.934Z,1499.00
2023-05-31T09:31:19.280Z,1395.00
2023-05-31T09:32:18.876Z,1302.00
2023-05-31T09:33:18.855Z,1366.00
2023-05-31T09:34:18.895Z,1127.00
2023-05-31T09:35:18.963Z,1058.00
2023-05-31T09:36:18.979Z,841.00
2023-05-31T09:37:19.001Z,766.00
2023-05-31T09:38:19.562Z,781.00
2023-05-31T09:39:19.080Z,831.00
2023-05-31T09:40:19.173Z,887.00
2023-05-31T09:41:19.169Z,887.00
2023-05-31T09:42:19.191Z,971.00
2023-05-31T09:43:19.219Z,987.00
2023-05-31T09:44:19.218Z,1019.00
2023-05-31T09:45:19.266Z,1063.00
2023-05-31T09:46:19.361Z,1105.00
2023-05-31T09:47:19.313Z,1173.00
2023-05-31T09:48:19.362Z,1250.00
2023-05-31T09:49:19.359Z,1260.00
2023-05-31T09:50:19.404Z,1265.00
2023-05-31T09:51:19.434Z,1302.00
2023-05-31T09:52:19.340Z,1347.00
2023-05-31T09:53:19.445Z,1408.00
2023-05-31T09:54:19.378Z,1394.00
2023-05-31T09:55:19.329Z,1387.00
2023-05-31T09:56:19.345Z,1377.00
2023-05-31T09:57:19.404Z,1406.00
2023-05-31T09:58:19.357Z,1404.00
2023-05-31T09:59:19.408Z,1428.00
2023-05-31T10:00:19.442Z,1497.00
2023-05-31T10:01:19.495Z,1580.00
2023-05-31T10:02:19.514Z,1505.00
2023-05-31T10:03:19.493Z,1231.00
2023-05-31T10:04:19.535Z,1102.00
2023-05-31T10:05:19.546Z,1091.00
2023-05-31T10:06:19.509Z,1140.00
2023-05-31T10:07:19.542Z,1140.00
2023-05-31T10:08:19.555Z,1142.00
2023-05-31T10:09:19.562Z,1181.00
2023-05-31T10:10:19.570Z,1231.00
2023-05-31T10:11:19.637Z,1240.00
2023-05-31T10:12:19.618Z,1254.00
2023-05-31T10:13:19.707Z,1294.00
2023-05-31T10:14:19.719Z,1285.00
2023-05-31T10:15:19.756Z,1306.00
2023-05-31T10:16:19.983Z,1350.00
2023-05-31T10:17:19.819Z,1369.00
2023-05-31T10:18:19.941Z,1357.00
2023-05-31T10:19:19.978Z,1376.00
2023-05-31T10:20:20.078Z,1381.00
2023-05-31T10:21:20.100Z,1408.00
2023-05-31T10:22:20.107Z,1395.00
2023-05-31T10:23:20.190Z,1394.00
2023-05-31T10:24:20.190Z,1465.00
2023-05-31T10:25:20.189Z,1154.00
2023-05-31T10:26:20.213Z,774.00
2023-05-31T10:27:20.214Z,568.00
2023-05-31T10:28:20.270Z,519.00
2023-05-31T10:29:20.301Z,453.00
2023-05-31T10:30:20.304Z,419.00
2023-05-31T10:31:20.414Z,460.00
2023-05-31T10:32:20.315Z,528.00
2023-05-31T10:33:20.374Z,553.00
2023-05-31T10:34:20.418Z,597.00
2023-05-31T10:35:20.472Z,645.00
2023-05-31T10:36:20.550Z,675.00
2023-05-31T10:37:20.565Z,747.00
2023-05-31T10:38:20.589Z,889.00
2023-05-31T10:39:20.603Z,944.00
2023-05-31T10:40:20.672Z,963.00
2023-05-31T10:41:25.800Z,997.00
2023-05-31T10:42:21.652Z,1000.00
2023-05-31T10:43:20.634Z,1020.00
2023-05-31T10:44:20.634Z,1089.00
2023-05-31T10:45:20.638Z,1239.00
2023-05-31T10:46:20.714Z,1382.00
2023-05-31T10:47:20.607Z,1432.00
2023-05-31T10:48:20.573Z,1511.00
2023-05-31T10:49:20.640Z,1531.00
2023-05-31T10:50:20.616Z,1533.00
2023-05-31T10:51:20.612Z,1593.00
2023-05-31T10:52:20.584Z,1650.00
2023-05-31T10:53:20.606Z,1644.00
2023-05-31T10:54:20.570Z,1687.00
2023-05-31T10:55:20.576Z,1667.00
2023-05-31T10:56:20.539Z,1662.00
2023-05-31T10:57:20.546Z,1705.00
2023-05-31T10:58:20.522Z,1755.00
2023-05-31T10:59:20.529Z,1769.00
2023-05-31T11:00:20.515Z,1750.00
2023-05-31T11:01:20.584Z,1720.00
2023-05-31T11:02:20.560Z,1718.00
2023-05-31T11:03:20.803Z,1765.00
2023-05-31T11:04:20.780Z,1801.00
2023-05-31T11:05:20.750Z,1825.00
2023-05-31T11:06:20.781Z,1856.00
2023-05-31T11:07:20.866Z,1816.00
2023-05-31T11:08:20.926Z,1800.00
2023-05-31T11:09:20.977Z,1791.00
2023-05-31T11:10:21.011Z,1819.00
2023-05-31T11:11:21.100Z,1832.00
2023-05-31T11:12:21.136Z,1863.00
2023-05-31T11:13:23.202Z,1881.00
2023-05-31T11:14:21.216Z,1863.00
2023-05-31T11:15:21.230Z,1891.00
2023-05-31T11:16:21.241Z,1879.00
2023-05-31T11:17:21.240Z,1893.00
2023-05-31T11:18:21.140Z,1911.00
2023-05-31T11:19:21.134Z,1934.00
2023-05-31T11:20:21.197Z,1952.00
2023-05-31T11:21:21.205Z,1908.00
2023-05-31T11:22:21.138Z,1919.00
2023-05-31T11:23:21.154Z,1791.00
2023-05-31T11:24:21.105Z,1891.00
2023-05-31T11:25:23.307Z,1876.00
2023-05-31T11:26:21.165Z,1877.00
2023-05-31T11:27:21.093Z,1881.00
2023-05-31T11:28:21.100Z,1876.00
2023-05-31T11:29:21.107Z,1848.00
2023-05-31T11:30:21.126Z,1802.00
2023-05-31T11:31:22.778Z,1744.00
2023-05-31T11:32:21.062Z,1674.00
2023-05-31T11:33:21.069Z,1663.00
2023-05-31T11:34:21.140Z,1610.00
2023-05-31T11:35:21.086Z,1505.00
2023-05-31T11:36:21.163Z,1509.00
2023-05-31T11:37:23.910Z,1542.00
2023-05-31T11:38:21.120Z,1471.00
2023-05-31T11:39:21.112Z,1434.00
2023-05-31T11:40:21.120Z,1468.00
2023-05-31T11:41:21.096Z,1440.00
2023-05-31T11:42:21.084Z,1440.00
2023-05-31T11:43:21.145Z,1345.00
2023-05-31T11:44:21.088Z,1190.00
2023-05-31T11:45:21.100Z,993.00
2023-05-31T11:46:21.082Z,775.00
2023-05-31T11:47:22.034Z,652.00
2023-05-31T11:48:21.072Z,738.00
2023-05-31T11:49:21.093Z,784.00
2023-05-31T11:50:21.050Z,820.00
2023-05-31T11:51:21.032Z,802.00
2023-05-31T11:52:21.082Z,787.00
2023-05-31T11:53:21.023Z,792.00
2023-05-31T11:54:21.016Z,800.00
2023-05-31T11:55:20.996Z,798.00
2023-05-31T11:56:21.024Z,788.00
2023-05-31T11:57:20.996Z,769.00
2023-05-31T11:58:20.999Z,733.00
2023-05-31T11:59:20.997Z,743.00
2023-05-31T12:00:20.944Z,719.00
2023-05-31T12:01:20.965Z,692.00
2023-05-31T12:02:21.046Z,691.00
2023-05-31T12:03:21.080Z,677.00
2023-05-31T12:04:20.967Z,712.00
2023-05-31T12:05:20.948Z,705.00
2023-05-31T12:06:22.846Z,704.00
2023-05-31T12:07:20.933Z,705.00
2023-05-31T12:08:20.913Z,704.00
2023-05-31T12:09:20.978Z,714.00
2023-05-31T12:10:20.917Z,725.00
2023-05-31T12:11:20.876Z,716.00
2023-05-31T12:12:20.953Z,731.00
2023-05-31T12:13:20.917Z,748.00
2023-05-31T12:14:20.917Z,747.00
2023-05-31T12:15:20.838Z,733.00
2023-05-31T12:16:20.873Z,731.00
2023-05-31T12:17:20.939Z,731.00
2023-05-31T12:18:20.853Z,714.00
2023-05-31T12:19:20.841Z,746.00
2023-05-31T12:20:20.831Z,729.00
2023-05-31T12:21:20.844Z,746.00